sensor_id;sensor_type;location;lat;lon;timestamp;P1;durP1;ratioP1;P2;durP2;ratioP2
13832;SDS011;6987;19.472;-99.276;2023-04-03T00:01:38;7.30;;;6.40;;
13832;SDS011;6987;19.472;-99.276;2023-04-03T00:04:07;7.00;;;6.28;;
13832;SDS011;6987;19.472;-99.276;2023-04-03T00:06:36;8.77;;;6.80;;
13832;SDS011;6987;19.472;-99.276;2023-04-03T00:09:11;8.40;;;7.65;;
13832;SDS011;6987;19.472;-99.276;2023-04-03T00:11:41;11.40;;;7.60;;
13832;SDS011;6987;19.472;-99.276;2023-04-03T00:14:11;7.53;;;6.75;;
13832;SDS011;6987;19.472;-99.276;2023-04-03T00:16:42;7.40;;;6.68;;
13832;SDS011;6987;19.472;-99.276;2023-04-03T00:19:12;9.57;;;7.00;;
13832;SDS011;6987;19.472;-99.276;2023-04-03T00:21:43;7.80;;;7.10;;
13832;SDS011;6987;19.472;-99.276;2023-04-03T00:24:14;8.95;;;7.03;;
13832;SDS011;6987;19.472;-99.276;2023-04-03T00:26:44;9.05;;;8.15;;
13832;SDS011;6987;19.472;-99.276;2023-04-03T00:29:15;11.02;;;8.30;;
13832;SDS011;6987;19.472;-99.276;2023-04-03T00:31:44;12.50;;;7.25;;
13832;SDS011;6987;19.472;-99.276;2023-04-03T00:34:13;11.07;;;7.65;;
13832;SDS011;6987;19.472;-99.276;2023-04-03T00:36:42;8.45;;;7.65;;
13832;SDS011;6987;19.472;-99.276;2023-04-03T00:39:11;10.80;;;7.75;;
13832;SDS011;6987;19.472;-99.276;2023-04-03T00:41:43;8.07;;;7.25;;
13832;SDS011;6987;19.472;-99.276;2023-04-03T00:44:19;8.75;;;7.88;;
13832;SDS011;6987;19.472;-99.276;2023-04-03T00:46:48;8.52;;;7.75;;
13832;SDS011;6987;19.472;-99.276;2023-04-03T00:49:18;8.38;;;7.55;;
13832;SDS011;6987;19.472;-99.276;2023-04-03T00:51:48;8.07;;;7.22;;
13832;SDS011;6987;19.472;-99.276;2023-04-03T00:54:18;9.50;;;7.22;;
13832;SDS011;6987;19.472;-99.276;2023-04-03T00:56:50;8.25;;;7.40;;
13832;SDS011;6987;19.472;-99.276;2023-04-03T00:59:20;8.68;;;7.55;;
13832;SDS011;6987;19.472;-99.276;2023-04-03T01:01:52;9.07;;;7.82;;
13832;SDS011;6987;19.472;-99.276;2023-04-03T01:04:26;9.88;;;7.43;;
13832;SDS011;6987;19.472;-99.276;2023-04-03T01:06:56;9.27;;;7.05;;
13832;SDS011;6987;19.472;-99.276;2023-04-03T01:09:27;12.50;;;7.82;;
13832;SDS011;6987;19.472;-99.276;2023-04-03T01:12:14;9.23;;;7.78;;
13832;SDS011;6987;19.472;-99.276;2023-04-03T01:14:43;8.40;;;7.70;;
13832;SDS011;6987;19.472;-99.276;2023-04-03T01:17:29;8.93;;;8.02;;
13832;SDS011;6987;19.472;-99.276;2023-04-03T01:22:43;8.68;;;7.88;;
13832;SDS011;6987;19.472;-99.276;2023-04-03T01:25:14;8.95;;;7.32;;
13832;SDS011;6987;19.472;-99.276;2023-04-03T01:27:45;9.38;;;7.38;;
13832;SDS011;6987;19.472;-99.276;2023-04-03T01:30:14;9.73;;;7.22;;
13832;SDS011;6987;19.472;-99.276;2023-04-03T01:32:49;8.40;;;7.70;;
13832;SDS011;6987;19.472;-99.276;2023-04-03T01:35:20;8.75;;;8.05;;
13832;SDS011;6987;19.472;-99.276;2023-04-03T01:37:51;9.20;;;6.97;;
13832;SDS011;6987;19.472;-99.276;2023-04-03T01:40:21;9.93;;;7.82;;
13832;SDS011;6987;19.472;-99.276;2023-04-03T01:42:50;8.75;;;7.85;;
13832;SDS011;6987;19.472;-99.276;2023-04-03T01:45:26;8.48;;;7.63;;
13832;SDS011;6987;19.472;-99.276;2023-04-03T01:47:57;8.60;;;7.57;;
13832;SDS011;6987;19.472;-99.276;2023-04-03T01:50:26;9.70;;;8.10;;
13832;SDS011;6987;19.472;-99.276;2023-04-03T01:52:57;10.25;;;8.13;;
13832;SDS011;6987;19.472;-99.276;2023-04-03T01:55:26;9.23;;;8.32;;
13832;SDS011;6987;19.472;-99.276;2023-04-03T01:57:55;14.75;;;9.32;;
13832;SDS011;6987;19.472;-99.276;2023-04-03T02:00:26;11.05;;;9.57;;
13832;SDS011;6987;19.472;-99.276;2023-04-03T02:03:00;11.77;;;8.50;;
13832;SDS011;6987;19.472;-99.276;2023-04-03T02:05:31;16.00;;;10.32;;
13832;SDS011;6987;19.472;-99.276;2023-04-03T02:08:00;12.43;;;8.18;;
13832;SDS011;6987;19.472;-99.276;2023-04-03T02:10:29;12.23;;;9.38;;
13832;SDS011;6987;19.472;-99.276;2023-04-03T02:13:00;12.10;;;8.10;;
13832;SDS011;6987;19.472;-99.276;2023-04-03T02:15:29;10.85;;;8.07;;
13832;SDS011;6987;19.472;-99.276;2023-04-03T02:18:03;9.15;;;8.30;;
13832;SDS011;6987;19.472;-99.276;2023-04-03T02:20:31;12.18;;;7.85;;
13832;SDS011;6987;19.472;-99.276;2023-04-03T02:23:01;14.27;;;8.50;;
13832;SDS011;6987;19.472;-99.276;2023-04-03T02:25:31;14.13;;;8.27;;
13832;SDS011;6987;19.472;-99.276;2023-04-03T02:28:01;13.63;;;9.45;;
13832;SDS011;6987;19.472;-99.276;2023-04-03T02:30:32;9.43;;;8.20;;
13832;SDS011;6987;19.472;-99.276;2023-04-03T02:33:03;10.48;;;8.27;;
13832;SDS011;6987;19.472;-99.276;2023-04-03T02:35:32;9.45;;;7.35;;
13832;SDS011;6987;19.472;-99.276;2023-04-03T02:38:02;8.05;;;6.85;;
13832;SDS011;6987;19.472;-99.276;2023-04-03T02:40:32;8.43;;;7.38;;
13832;SDS011;6987;19.472;-99.276;2023-04-03T02:43:01;8.07;;;6.93;;
13832;SDS011;6987;19.472;-99.276;2023-04-03T02:45:30;7.95;;;7.28;;
13832;SDS011;6987;19.472;-99.276;2023-04-03T02:47:59;9.50;;;8.60;;
13832;SDS011;6987;19.472;-99.276;2023-04-03T02:50:30;7.63;;;6.90;;
13832;SDS011;6987;19.472;-99.276;2023-04-03T02:52:59;8.57;;;7.68;;
13832;SDS011;6987;19.472;-99.276;2023-04-03T02:55:29;8.20;;;7.45;;
13832;SDS011;6987;19.472;-99.276;2023-04-03T02:57:58;7.53;;;6.78;;
13832;SDS011;6987;19.472;-99.276;2023-04-03T03:00:28;8.85;;;7.35;;
13832;SDS011;6987;19.472;-99.276;2023-04-03T03:02:57;7.32;;;6.70;;
13832;SDS011;6987;19.472;-99.276;2023-04-03T03:05:26;7.80;;;7.10;;
13832;SDS011;6987;19.472;-99.276;2023-04-03T03:08:00;7.93;;;6.57;;
13832;SDS011;6987;19.472;-99.276;2023-04-03T03:10:28;8.93;;;6.55;;
13832;SDS011;6987;19.472;-99.276;2023-04-03T03:12:59;7.32;;;6.68;;
13832;SDS011;6987;19.472;-99.276;2023-04-03T03:15:29;7.28;;;6.45;;
13832;SDS011;6987;19.472;-99.276;2023-04-03T03:17:58;7.38;;;6.88;;
13832;SDS011;6987;19.472;-99.276;2023-04-03T03:20:27;7.82;;;7.00;;
13832;SDS011;6987;19.472;-99.276;2023-04-03T03:23:00;7.65;;;6.95;;
13832;SDS011;6987;19.472;-99.276;2023-04-03T03:25:29;9.30;;;6.70;;
13832;SDS011;6987;19.472;-99.276;2023-04-03T03:28:01;7.55;;;6.53;;
13832;SDS011;6987;19.472;-99.276;2023-04-03T03:30:31;8.15;;;5.97;;
13832;SDS011;6987;19.472;-99.276;2023-04-03T03:33:01;8.68;;;6.55;;
13832;SDS011;6987;19.472;-99.276;2023-04-03T03:35:31;7.10;;;6.50;;
13832;SDS011;6987;19.472;-99.276;2023-04-03T03:38:02;7.60;;;6.90;;
13832;SDS011;6987;19.472;-99.276;2023-04-03T03:40:32;7.47;;;6.82;;
13832;SDS011;6987;19.472;-99.276;2023-04-03T03:43:00;7.22;;;6.60;;
13832;SDS011;6987;19.472;-99.276;2023-04-03T03:45:30;9.45;;;6.35;;
13832;SDS011;6987;19.472;-99.276;2023-04-03T03:47:59;7.35;;;6.70;;
13832;SDS011;6987;19.472;-99.276;2023-04-03T03:50:29;11.27;;;6.78;;
13832;SDS011;6987;19.472;-99.276;2023-04-03T03:52:59;6.88;;;6.38;;
13832;SDS011;6987;19.472;-99.276;2023-04-03T03:55:30;10.95;;;6.85;;
13832;SDS011;6987;19.472;-99.276;2023-04-03T03:58:00;8.07;;;7.18;;
13832;SDS011;6987;19.472;-99.276;2023-04-03T04:00:31;8.88;;;6.85;;
13832;SDS011;6987;19.472;-99.276;2023-04-03T04:03:00;7.63;;;6.90;;
13832;SDS011;6987;19.472;-99.276;2023-04-03T04:05:32;7.22;;;6.55;;
13832;SDS011;6987;19.472;-99.276;2023-04-03T04:08:03;9.00;;;6.63;;
13832;SDS011;6987;19.472;-99.276;2023-04-03T04:10:34;9.15;;;7.70;;
13832;SDS011;6987;19.472;-99.276;2023-04-03T04:13:04;7.28;;;6.68;;
13832;SDS011;6987;19.472;-99.276;2023-04-03T04:15:33;8.60;;;7.70;;
13832;SDS011;6987;19.472;-99.276;2023-04-03T04:18:03;7.85;;;7.05;;
13832;SDS011;6987;19.472;-99.276;2023-04-03T04:20:33;8.95;;;7.80;;
13832;SDS011;6987;19.472;-99.276;2023-04-03T04:23:02;8.40;;;7.30;;
13832;SDS011;6987;19.472;-99.276;2023-04-03T04:25:36;8.93;;;7.15;;
13832;SDS011;6987;19.472;-99.276;2023-04-03T04:28:07;9.75;;;6.90;;
13832;SDS011;6987;19.472;-99.276;2023-04-03T04:30:39;8.18;;;7.40;;
13832;SDS011;6987;19.472;-99.276;2023-04-03T04:33:09;8.35;;;7.55;;
13832;SDS011;6987;19.472;-99.276;2023-04-03T04:35:37;8.05;;;7.35;;
13832;SDS011;6987;19.472;-99.276;2023-04-03T04:38:07;7.82;;;7.03;;
13832;SDS011;6987;19.472;-99.276;2023-04-03T04:40:38;7.28;;;6.25;;
13832;SDS011;6987;19.472;-99.276;2023-04-03T04:43:07;7.60;;;6.85;;
13832;SDS011;6987;19.472;-99.276;2023-04-03T04:45:39;7.20;;;6.22;;
13832;SDS011;6987;19.472;-99.276;2023-04-03T04:48:11;7.75;;;7.15;;
13832;SDS011;6987;19.472;-99.276;2023-04-03T04:50:39;7.53;;;6.80;;
13832;SDS011;6987;19.472;-99.276;2023-04-03T04:53:08;7.68;;;7.00;;
13832;SDS011;6987;19.472;-99.276;2023-04-03T04:55:40;8.75;;;7.75;;
13832;SDS011;6987;19.472;-99.276;2023-04-03T04:58:08;10.48;;;6.53;;
13832;SDS011;6987;19.472;-99.276;2023-04-03T05:00:41;7.28;;;6.68;;
13832;SDS011;6987;19.472;-99.276;2023-04-03T05:03:10;7.07;;;6.40;;
13832;SDS011;6987;19.472;-99.276;2023-04-03T05:05:39;8.20;;;7.18;;
13832;SDS011;6987;19.472;-99.276;2023-04-03T05:08:09;7.63;;;6.95;;
13832;SDS011;6987;19.472;-99.276;2023-04-03T05:10:40;7.05;;;6.47;;
13832;SDS011;6987;19.472;-99.276;2023-04-03T05:13:12;6.60;;;6.03;;
13832;SDS011;6987;19.472;-99.276;2023-04-03T05:15:41;7.32;;;6.63;;
13832;SDS011;6987;19.472;-99.276;2023-04-03T05:18:13;6.95;;;6.30;;
13832;SDS011;6987;19.472;-99.276;2023-04-03T05:20:42;6.65;;;6.15;;
13832;SDS011;6987;19.472;-99.276;2023-04-03T05:23:11;7.55;;;6.90;;
13832;SDS011;6987;19.472;-99.276;2023-04-03T05:25:42;7.32;;;6.63;;
13832;SDS011;6987;19.472;-99.276;2023-04-03T05:28:13;12.45;;;6.93;;
13832;SDS011;6987;19.472;-99.276;2023-04-03T05:30:52;7.32;;;6.60;;
13832;SDS011;6987;19.472;-99.276;2023-04-03T05:33:22;7.88;;;7.07;;
13832;SDS011;6987;19.472;-99.276;2023-04-03T05:35:53;8.10;;;7.30;;
13832;SDS011;6987;19.472;-99.276;2023-04-03T05:38:24;9.55;;;6.45;;
13832;SDS011;6987;19.472;-99.276;2023-04-03T05:40:56;7.30;;;6.50;;
13832;SDS011;6987;19.472;-99.276;2023-04-03T05:43:25;7.07;;;6.47;;
13832;SDS011;6987;19.472;-99.276;2023-04-03T05:45:55;8.80;;;7.07;;
13832;SDS011;6987;19.472;-99.276;2023-04-03T05:48:24;8.60;;;6.90;;
13832;SDS011;6987;19.472;-99.276;2023-04-03T05:50:55;6.97;;;6.25;;
13832;SDS011;6987;19.472;-99.276;2023-04-03T05:53:25;7.28;;;6.68;;
13832;SDS011;6987;19.472;-99.276;2023-04-03T05:55:57;8.40;;;6.65;;
13832;SDS011;6987;19.472;-99.276;2023-04-03T05:58:30;6.47;;;5.97;;
13832;SDS011;6987;19.472;-99.276;2023-04-03T06:01:01;8.23;;;7.53;;
13832;SDS011;6987;19.472;-99.276;2023-04-03T06:03:31;13.35;;;7.03;;
13832;SDS011;6987;19.472;-99.276;2023-04-03T06:06:02;21.95;;;7.15;;
13832;SDS011;6987;19.472;-99.276;2023-04-03T06:08:35;8.25;;;7.35;;
13832;SDS011;6987;19.472;-99.276;2023-04-03T06:11:06;8.02;;;6.90;;
13832;SDS011;6987;19.472;-99.276;2023-04-03T06:13:36;8.13;;;6.78;;
13832;SDS011;6987;19.472;-99.276;2023-04-03T06:16:08;7.53;;;6.93;;
13832;SDS011;6987;19.472;-99.276;2023-04-03T06:18:37;7.80;;;7.10;;
13832;SDS011;6987;19.472;-99.276;2023-04-03T06:21:08;8.10;;;7.20;;
13832;SDS011;6987;19.472;-99.276;2023-04-03T06:23:38;8.70;;;7.13;;
13832;SDS011;6987;19.472;-99.276;2023-04-03T06:26:10;7.32;;;6.38;;
13832;SDS011;6987;19.472;-99.276;2023-04-03T06:28:39;7.53;;;6.82;;
13832;SDS011;6987;19.472;-99.276;2023-04-03T06:31:09;15.02;;;7.57;;
13832;SDS011;6987;19.472;-99.276;2023-04-03T06:33:38;7.82;;;7.07;;
13832;SDS011;6987;19.472;-99.276;2023-04-03T06:36:09;7.35;;;6.75;;
13832;SDS011;6987;19.472;-99.276;2023-04-03T06:38:39;8.65;;;7.20;;
13832;SDS011;6987;19.472;-99.276;2023-04-03T06:41:10;11.75;;;7.22;;
13832;SDS011;6987;19.472;-99.276;2023-04-03T06:43:41;8.18;;;7.43;;
13832;SDS011;6987;19.472;-99.276;2023-04-03T06:46:14;7.57;;;7.00;;
13832;SDS011;6987;19.472;-99.276;2023-04-03T06:48:43;7.68;;;6.95;;
13832;SDS011;6987;19.472;-99.276;2023-04-03T06:51:15;9.80;;;6.77;;
13832;SDS011;6987;19.472;-99.276;2023-04-03T06:53:48;12.23;;;6.97;;
13832;SDS011;6987;19.472;-99.276;2023-04-03T06:56:20;8.00;;;7.20;;
13832;SDS011;6987;19.472;-99.276;2023-04-03T06:58:49;7.78;;;7.07;;
13832;SDS011;6987;19.472;-99.276;2023-04-03T07:01:20;10.25;;;7.47;;
13832;SDS011;6987;19.472;-99.276;2023-04-03T07:03:49;7.72;;;6.93;;
13832;SDS011;6987;19.472;-99.276;2023-04-03T07:06:19;7.95;;;6.70;;
13832;SDS011;6987;19.472;-99.276;2023-04-03T07:08:52;7.53;;;6.95;;
13832;SDS011;6987;19.472;-99.276;2023-04-03T07:11:23;7.40;;;6.80;;
13832;SDS011;6987;19.472;-99.276;2023-04-03T07:13:52;8.60;;;7.82;;
13832;SDS011;6987;19.472;-99.276;2023-04-03T07:16:22;9.18;;;7.10;;
13832;SDS011;6987;19.472;-99.276;2023-04-03T07:18:56;8.13;;;7.32;;
13832;SDS011;6987;19.472;-99.276;2023-04-03T07:21:27;13.13;;;7.65;;
13832;SDS011;6987;19.472;-99.276;2023-04-03T07:23:56;7.50;;;6.60;;
13832;SDS011;6987;19.472;-99.276;2023-04-03T07:26:28;7.80;;;6.95;;
13832;SDS011;6987;19.472;-99.276;2023-04-03T07:28:57;8.85;;;7.22;;
13832;SDS011;6987;19.472;-99.276;2023-04-03T07:31:27;7.53;;;6.78;;
13832;SDS011;6987;19.472;-99.276;2023-04-03T07:33:56;8.18;;;6.88;;
13832;SDS011;6987;19.472;-99.276;2023-04-03T07:36:27;7.80;;;6.95;;
13832;SDS011;6987;19.472;-99.276;2023-04-03T07:38:59;7.78;;;7.07;;
13832;SDS011;6987;19.472;-99.276;2023-04-03T07:41:34;9.20;;;7.03;;
13832;SDS011;6987;19.472;-99.276;2023-04-03T07:44:04;8.05;;;7.22;;
13832;SDS011;6987;19.472;-99.276;2023-04-03T07:46:38;8.55;;;7.70;;
13832;SDS011;6987;19.472;-99.276;2023-04-03T07:49:08;7.75;;;6.65;;
13832;SDS011;6987;19.472;-99.276;2023-04-03T07:51:36;7.78;;;7.05;;
13832;SDS011;6987;19.472;-99.276;2023-04-03T07:54:06;9.98;;;8.00;;
13832;SDS011;6987;19.472;-99.276;2023-04-03T07:56:37;8.20;;;7.45;;
13832;SDS011;6987;19.472;-99.276;2023-04-03T07:59:06;8.07;;;6.72;;
13832;SDS011;6987;19.472;-99.276;2023-04-03T08:01:38;7.10;;;6.43;;
13832;SDS011;6987;19.472;-99.276;2023-04-03T08:04:08;7.45;;;6.85;;
13832;SDS011;6987;19.472;-99.276;2023-04-03T08:06:37;8.15;;;7.15;;
13832;SDS011;6987;19.472;-99.276;2023-04-03T08:09:12;7.63;;;6.75;;
13832;SDS011;6987;19.472;-99.276;2023-04-03T08:11:49;8.05;;;6.68;;
13832;SDS011;6987;19.472;-99.276;2023-04-03T08:14:19;7.43;;;6.75;;
13832;SDS011;6987;19.472;-99.276;2023-04-03T08:16:50;7.28;;;6.72;;
13832;SDS011;6987;19.472;-99.276;2023-04-03T08:19:19;7.57;;;6.82;;
13832;SDS011;6987;19.472;-99.276;2023-04-03T08:21:49;7.63;;;7.03;;
13832;SDS011;6987;19.472;-99.276;2023-04-03T08:24:20;11.73;;;6.22;;
13832;SDS011;6987;19.472;-99.276;2023-04-03T08:26:52;7.18;;;6.45;;
13832;SDS011;6987;19.472;-99.276;2023-04-03T08:29:22;6.90;;;6.38;;
13832;SDS011;6987;19.472;-99.276;2023-04-03T08:31:52;6.90;;;6.35;;
13832;SDS011;6987;19.472;-99.276;2023-04-03T08:34:21;8.35;;;6.68;;
13832;SDS011;6987;19.472;-99.276;2023-04-03T08:36:51;9.30;;;6.72;;
13832;SDS011;6987;19.472;-99.276;2023-04-03T08:39:20;6.88;;;6.35;;
13832;SDS011;6987;19.472;-99.276;2023-04-03T08:41:50;7.07;;;6.47;;
13832;SDS011;6987;19.472;-99.276;2023-04-03T08:44:23;7.63;;;6.32;;
13832;SDS011;6987;19.472;-99.276;2023-04-03T08:46:56;9.68;;;6.38;;
13832;SDS011;6987;19.472;-99.276;2023-04-03T08:49:31;7.07;;;6.35;;
13832;SDS011;6987;19.472;-99.276;2023-04-03T08:52:03;7.53;;;6.93;;
13832;SDS011;6987;19.472;-99.276;2023-04-03T08:54:33;11.18;;;6.70;;
13832;SDS011;6987;19.472;-99.276;2023-04-03T08:57:05;6.95;;;5.97;;
13832;SDS011;6987;19.472;-99.276;2023-04-03T08:59:35;7.03;;;6.20;;
13832;SDS011;6987;19.472;-99.276;2023-04-03T09:02:16;7.15;;;6.47;;
13832;SDS011;6987;19.472;-99.276;2023-04-03T09:04:49;6.20;;;5.60;;
13832;SDS011;6987;19.472;-99.276;2023-04-03T09:07:20;6.82;;;6.25;;
13832;SDS011;6987;19.472;-99.276;2023-04-03T09:09:52;6.63;;;6.13;;
13832;SDS011;6987;19.472;-99.276;2023-04-03T09:12:24;7.28;;;6.57;;
13832;SDS011;6987;19.472;-99.276;2023-04-03T09:14:58;7.18;;;6.55;;
13832;SDS011;6987;19.472;-99.276;2023-04-03T09:17:35;6.85;;;6.28;;
13832;SDS011;6987;19.472;-99.276;2023-04-03T09:20:09;9.43;;;6.35;;
13832;SDS011;6987;19.472;-99.276;2023-04-03T09:22:46;6.45;;;5.95;;
13832;SDS011;6987;19.472;-99.276;2023-04-03T09:25:17;7.53;;;6.82;;
13832;SDS011;6987;19.472;-99.276;2023-04-03T09:27:49;7.43;;;6.82;;
13832;SDS011;6987;19.472;-99.276;2023-04-03T09:30:19;8.10;;;6.43;;
13832;SDS011;6987;19.472;-99.276;2023-04-03T09:32:52;6.63;;;6.13;;
13832;SDS011;6987;19.472;-99.276;2023-04-03T09:35:24;7.57;;;6.55;;
13832;SDS011;6987;19.472;-99.276;2023-04-03T09:37:55;7.45;;;6.75;;
13832;SDS011;6987;19.472;-99.276;2023-04-03T09:40:34;6.38;;;5.88;;
13832;SDS011;6987;19.472;-99.276;2023-04-03T09:43:23;6.93;;;6.32;;
13832;SDS011;6987;19.472;-99.276;2023-04-03T09:45:53;8.57;;;6.88;;
13832;SDS011;6987;19.472;-99.276;2023-04-03T09:48:23;6.85;;;6.18;;
13832;SDS011;6987;19.472;-99.276;2023-04-03T09:50:55;7.10;;;6.47;;
13832;SDS011;6987;19.472;-99.276;2023-04-03T09:53:28;7.15;;;6.05;;
13832;SDS011;6987;19.472;-99.276;2023-04-03T09:55:59;8.15;;;6.25;;
13832;SDS011;6987;19.472;-99.276;2023-04-03T09:58:31;6.63;;;6.13;;
13832;SDS011;6987;19.472;-99.276;2023-04-03T10:01:01;7.32;;;6.80;;
13832;SDS011;6987;19.472;-99.276;2023-04-03T10:03:36;6.55;;;5.93;;
13832;SDS011;6987;19.472;-99.276;2023-04-03T10:06:05;9.38;;;7.28;;
13832;SDS011;6987;19.472;-99.276;2023-04-03T10:08:58;8.10;;;7.00;;
13832;SDS011;6987;19.472;-99.276;2023-04-03T10:11:30;7.57;;;6.57;;
13832;SDS011;6987;19.472;-99.276;2023-04-03T10:14:02;7.88;;;7.20;;
13832;SDS011;6987;19.472;-99.276;2023-04-03T10:16:34;8.10;;;6.95;;
13832;SDS011;6987;19.472;-99.276;2023-04-03T10:19:23;7.65;;;7.03;;
13832;SDS011;6987;19.472;-99.276;2023-04-03T10:22:00;8.52;;;7.65;;
13832;SDS011;6987;19.472;-99.276;2023-04-03T10:24:32;11.25;;;6.80;;
13832;SDS011;6987;19.472;-99.276;2023-04-03T10:27:05;7.70;;;7.00;;
13832;SDS011;6987;19.472;-99.276;2023-04-03T10:29:43;7.90;;;7.13;;
13832;SDS011;6987;19.472;-99.276;2023-04-03T10:32:24;8.20;;;7.25;;
13832;SDS011;6987;19.472;-99.276;2023-04-03T10:34:58;7.90;;;6.80;;
13832;SDS011;6987;19.472;-99.276;2023-04-03T10:37:34;7.28;;;6.57;;
13832;SDS011;6987;19.472;-99.276;2023-04-03T10:40:11;8.32;;;7.47;;
13832;SDS011;6987;19.472;-99.276;2023-04-03T10:42:44;8.23;;;7.40;;
13832;SDS011;6987;19.472;-99.276;2023-04-03T10:45:23;7.60;;;6.90;;
13832;SDS011;6987;19.472;-99.276;2023-04-03T10:47:56;7.78;;;7.07;;
13832;SDS011;6987;19.472;-99.276;2023-04-03T10:50:35;8.30;;;7.60;;
13832;SDS011;6987;19.472;-99.276;2023-04-03T10:53:08;7.03;;;6.53;;
13832;SDS011;6987;19.472;-99.276;2023-04-03T10:55:42;8.68;;;7.80;;
13832;SDS011;6987;19.472;-99.276;2023-04-03T11:00:44;8.45;;;7.72;;
13832;SDS011;6987;19.472;-99.276;2023-04-03T11:03:15;8.27;;;7.47;;
13832;SDS011;6987;19.472;-99.276;2023-04-03T11:05:47;10.65;;;7.68;;
13832;SDS011;6987;19.472;-99.276;2023-04-03T11:08:23;7.65;;;6.85;;
13832;SDS011;6987;19.472;-99.276;2023-04-03T11:10:53;8.30;;;7.50;;
13832;SDS011;6987;19.472;-99.276;2023-04-03T11:13:27;9.05;;;8.15;;
13832;SDS011;6987;19.472;-99.276;2023-04-03T11:16:01;10.35;;;8.70;;
13832;SDS011;6987;19.472;-99.276;2023-04-03T11:18:33;9.82;;;8.82;;
13832;SDS011;6987;19.472;-99.276;2023-04-03T11:21:06;7.72;;;7.13;;
13832;SDS011;6987;19.472;-99.276;2023-04-03T11:23:36;8.70;;;7.90;;
13832;SDS011;6987;19.472;-99.276;2023-04-03T11:26:11;8.32;;;7.65;;
13832;SDS011;6987;19.472;-99.276;2023-04-03T11:28:41;9.18;;;8.27;;
13832;SDS011;6987;19.472;-99.276;2023-04-03T11:31:15;11.93;;;7.45;;
13832;SDS011;6987;19.472;-99.276;2023-04-03T11:33:51;9.65;;;7.55;;
13832;SDS011;6987;19.472;-99.276;2023-04-03T11:36:23;8.63;;;7.75;;
13832;SDS011;6987;19.472;-99.276;2023-04-03T11:38:53;9.73;;;8.32;;
13832;SDS011;6987;19.472;-99.276;2023-04-03T11:41:27;8.63;;;7.88;;
13832;SDS011;6987;19.472;-99.276;2023-04-03T11:43:58;8.07;;;7.47;;
13832;SDS011;6987;19.472;-99.276;2023-04-03T11:52:13;9.10;;;8.20;;
13832;SDS011;6987;19.472;-99.276;2023-04-03T11:55:09;14.57;;;8.02;;
13832;SDS011;6987;19.472;-99.276;2023-04-03T11:58:03;10.88;;;8.20;;
13832;SDS011;6987;19.472;-99.276;2023-04-03T12:00:50;11.77;;;7.80;;
13832;SDS011;6987;19.472;-99.276;2023-04-03T12:09:21;9.07;;;8.18;;
13832;SDS011;6987;19.472;-99.276;2023-04-03T12:11:51;9.73;;;8.40;;
13832;SDS011;6987;19.472;-99.276;2023-04-03T12:14:22;12.70;;;8.32;;
13832;SDS011;6987;19.472;-99.276;2023-04-03T12:16:53;10.52;;;9.32;;
13832;SDS011;6987;19.472;-99.276;2023-04-03T12:19:31;9.02;;;7.95;;
13832;SDS011;6987;19.472;-99.276;2023-04-03T12:24:50;11.38;;;7.68;;
13832;SDS011;6987;19.472;-99.276;2023-04-03T12:27:23;8.52;;;7.78;;
13832;SDS011;6987;19.472;-99.276;2023-04-03T12:29:56;10.75;;;7.60;;
13832;SDS011;6987;19.472;-99.276;2023-04-03T12:32:34;10.82;;;9.00;;
13832;SDS011;6987;19.472;-99.276;2023-04-03T12:35:05;12.07;;;8.80;;
13832;SDS011;6987;19.472;-99.276;2023-04-03T12:40:39;12.05;;;8.35;;
13832;SDS011;6987;19.472;-99.276;2023-04-03T12:43:19;12.23;;;8.90;;
13832;SDS011;6987;19.472;-99.276;2023-04-03T12:45:52;10.68;;;8.23;;
13832;SDS011;6987;19.472;-99.276;2023-04-03T12:48:26;13.27;;;9.35;;
13832;SDS011;6987;19.472;-99.276;2023-04-03T12:50:57;8.73;;;7.82;;
13832;SDS011;6987;19.472;-99.276;2023-04-03T12:53:28;8.80;;;7.90;;
13832;SDS011;6987;19.472;-99.276;2023-04-03T12:58:45;8.85;;;7.95;;
13832;SDS011;6987;19.472;-99.276;2023-04-03T13:01:17;10.95;;;8.30;;
13832;SDS011;6987;19.472;-99.276;2023-04-03T13:03:49;10.70;;;8.32;;
13832;SDS011;6987;19.472;-99.276;2023-04-03T13:06:21;12.02;;;7.90;;
13832;SDS011;6987;19.472;-99.276;2023-04-03T13:08:52;12.52;;;8.85;;
13832;SDS011;6987;19.472;-99.276;2023-04-03T13:11:23;15.27;;;8.77;;
13832;SDS011;6987;19.472;-99.276;2023-04-03T13:13:56;13.13;;;9.05;;
13832;SDS011;6987;19.472;-99.276;2023-04-03T13:16:26;9.43;;;8.52;;
13832;SDS011;6987;19.472;-99.276;2023-04-03T13:18:55;9.75;;;8.75;;
13832;SDS011;6987;19.472;-99.276;2023-04-03T13:21:26;10.75;;;8.50;;
13832;SDS011;6987;19.472;-99.276;2023-04-03T13:24:00;11.40;;;8.82;;
13832;SDS011;6987;19.472;-99.276;2023-04-03T13:26:31;9.35;;;8.38;;
13832;SDS011;6987;19.472;-99.276;2023-04-03T13:29:06;9.55;;;8.65;;
13832;SDS011;6987;19.472;-99.276;2023-04-03T13:31:35;16.73;;;8.55;;
13832;SDS011;6987;19.472;-99.276;2023-04-03T13:34:06;19.13;;;8.65;;
13832;SDS011;6987;19.472;-99.276;2023-04-03T13:36:37;9.93;;;8.95;;
13832;SDS011;6987;19.472;-99.276;2023-04-03T13:39:20;10.23;;;9.32;;
13832;SDS011;6987;19.472;-99.276;2023-04-03T13:41:51;13.80;;;9.73;;
13832;SDS011;6987;19.472;-99.276;2023-04-03T13:44:30;16.27;;;10.20;;
13832;SDS011;6987;19.472;-99.276;2023-04-03T13:47:00;14.38;;;10.05;;
13832;SDS011;6987;19.472;-99.276;2023-04-03T13:49:30;14.15;;;10.05;;
13832;SDS011;6987;19.472;-99.276;2023-04-03T13:51:59;11.88;;;10.57;;
13832;SDS011;6987;19.472;-99.276;2023-04-03T13:54:29;18.50;;;11.43;;
13832;SDS011;6987;19.472;-99.276;2023-04-03T13:57:00;11.82;;;10.63;;
13832;SDS011;6987;19.472;-99.276;2023-04-03T13:59:31;13.55;;;11.30;;
13832;SDS011;6987;19.472;-99.276;2023-04-03T14:02:11;13.60;;;11.43;;
13832;SDS011;6987;19.472;-99.276;2023-04-03T14:04:46;14.20;;;11.93;;
13832;SDS011;6987;19.472;-99.276;2023-04-03T14:07:16;14.23;;;11.77;;
13832;SDS011;6987;19.472;-99.276;2023-04-03T14:09:47;12.98;;;11.52;;
13832;SDS011;6987;19.472;-99.276;2023-04-03T14:12:17;16.60;;;11.95;;
13832;SDS011;6987;19.472;-99.276;2023-04-03T14:14:48;14.73;;;11.07;;
13832;SDS011;6987;19.472;-99.276;2023-04-03T14:17:18;13.60;;;11.70;;
13832;SDS011;6987;19.472;-99.276;2023-04-03T14:19:47;13.65;;;12.40;;
13832;SDS011;6987;19.472;-99.276;2023-04-03T14:22:17;14.38;;;12.88;;
13832;SDS011;6987;19.472;-99.276;2023-04-03T14:24:47;13.50;;;12.27;;
13832;SDS011;6987;19.472;-99.276;2023-04-03T14:27:18;14.15;;;12.45;;
13832;SDS011;6987;19.472;-99.276;2023-04-03T14:29:49;15.27;;;13.35;;
13832;SDS011;6987;19.472;-99.276;2023-04-03T14:32:22;18.55;;;14.20;;
13832;SDS011;6987;19.472;-99.276;2023-04-03T14:34:51;18.60;;;14.40;;
13832;SDS011;6987;19.472;-99.276;2023-04-03T14:37:22;15.65;;;13.98;;
13832;SDS011;6987;19.472;-99.276;2023-04-03T14:39:52;16.10;;;13.00;;
13832;SDS011;6987;19.472;-99.276;2023-04-03T14:42:22;15.27;;;13.73;;
13832;SDS011;6987;19.472;-99.276;2023-04-03T14:44:53;15.85;;;13.70;;
13832;SDS011;6987;19.472;-99.276;2023-04-03T14:47:22;17.73;;;14.77;;
13832;SDS011;6987;19.472;-99.276;2023-04-03T14:49:53;16.02;;;14.13;;
13832;SDS011;6987;19.472;-99.276;2023-04-03T14:52:24;17.00;;;14.38;;
13832;SDS011;6987;19.472;-99.276;2023-04-03T14:54:54;19.98;;;15.13;;
13832;SDS011;6987;19.472;-99.276;2023-04-03T14:57:24;19.77;;;14.73;;
13832;SDS011;6987;19.472;-99.276;2023-04-03T14:59:56;24.85;;;13.30;;
13832;SDS011;6987;19.472;-99.276;2023-04-03T15:02:27;13.30;;;12.10;;
13832;SDS011;6987;19.472;-99.276;2023-04-03T15:04:57;13.35;;;12.05;;
13832;SDS011;6987;19.472;-99.276;2023-04-03T15:07:27;13.68;;;12.23;;
13832;SDS011;6987;19.472;-99.276;2023-04-03T15:09:56;17.33;;;14.55;;
13832;SDS011;6987;19.472;-99.276;2023-04-03T15:12:26;15.38;;;11.90;;
13832;SDS011;6987;19.472;-99.276;2023-04-03T15:14:57;18.00;;;13.77;;
13832;SDS011;6987;19.472;-99.276;2023-04-03T15:17:26;13.50;;;11.73;;
13832;SDS011;6987;19.472;-99.276;2023-04-03T15:19:56;14.60;;;13.00;;